Flight Track Log - Related Links

Times and Time Zones

All times are in EDT time to prevent confusion due to time zone crossing. See the N510SR flight status page for this flight to view local times or setup timezone preferences in your user account.

Time Position Orientation Groundspeed Altitude Reporting Facility
EDT Latitude Longitude Course Direction KTS MPH feet Rate Location/Type
Thu 12:41:16 PM 40.9167 -74.0333 270° West 218 251 2,900  Level New York TRACON
Thu 12:42:16 PM 40.9167 -74.1167 270° West 243 280 6,700 3,492 Climbing New York TRACON
Thu 12:44:25 PM 40.9000 -74.3181 264° West 273 314 13,900 2,317 Climbing New York Center
Thu 12:45:25 PM 40.8508 -74.4281 239° Southwest 305 351 14,000 500 Climbing New York Center
Thu 12:46:00 PM 40.5833 -74.9471 270° West  Level FlightAware Approximate
Thu 12:46:25 PM 40.8042 -74.5214 237° Southwest 340 391 14,900  Level New York Center
Thu 12:47:25 PM 40.7483 -74.6389 238° Southwest 347 399 16,000 900 Climbing New York Center
Thu 12:48:25 PM 40.7033 -74.7375 239° Southwest 352 405 16,700 1,050 Climbing New York Center
Thu 12:49:25 PM 40.6453 -74.8544 237° Southwest 358 412 18,100 1,100 Climbing New York Center
Thu 12:50:25 PM 40.5958 -74.9528 237° Southwest 358 412 18,900 1,650 Climbing New York Center
Thu 12:51:25 PM 40.5397 -75.0639 236° Southwest 358 412 21,400 2,300 Climbing New York Center
Thu 12:52:25 PM 40.4756 -75.1664 231° Southwest 370 426 23,500 2,100 Climbing New York Center
Thu 12:53:25 PM 40.4025 -75.2789 230° Southwest 389 448 25,600 2,000 Climbing New York Center
Thu 12:54:25 PM 40.3278 -75.3831 227° Southwest 395 455 27,500 1,750 Climbing New York Center
Thu 12:55:25 PM 40.2425 -75.4833 222° Southwest 406 467 29,100 1,750 Climbing New York Center
Thu 12:56:25 PM 40.1528 -75.5858 221° Southwest 417 480 31,000 2,100 Climbing New York Center
Thu 12:57:25 PM 40.0675 -75.6858 222° Southwest 422 486 33,300 2,200 Climbing New York Center
Thu 12:58:25 PM 39.9839 -75.7883 223° Southwest 422 486 35,400 2,000 Climbing New York Center
Thu 12:59:25 PM 39.9028 -75.8825 222° Southwest 408 470 37,300 1,800 Climbing New York Center
Thu 01:00:25 PM 39.8103 -75.9919 222° Southwest 408 470 39,000 942 Climbing New York Center
Thu 01:02:17 PM 39.6603 -76.1656 222° Southwest 405 466 40,000 353 Climbing Washington Center
Thu 01:03:15 PM 39.5742 -76.2619 221° Southwest 410 472 40,000  Level Washington Center
Thu 01:04:16 PM 39.4861 -76.3633 222° Southwest 410 472 40,000  Level Washington Center
Thu 01:05:17 PM 39.4083 -76.4781 229° Southwest 410 472 40,000 151 Level Washington Center
Thu 01:06:15 PM 39.3322 -76.5925 229° Southwest 421 484 40,300 605 Climbing Washington Center
Thu 01:07:16 PM 39.2564 -76.7094 230° Southwest 427 491 41,200 1,388 Climbing Washington Center
Thu 01:08:16 PM 39.1864 -76.8208 231° Southwest 422 486 43,100 1,190 Climbing Washington Center
Thu 01:09:17 PM 39.1186 -76.9292 231° Southwest 403 464 43,600 504 Climbing Washington Center
Thu 01:10:15 PM 39.0464 -77.0375 229° Southwest 403 464 44,100 706 Climbing Washington Center
Thu 01:11:16 PM 38.9619 -77.1319 221° Southwest 403 464 45,000 443 Climbing Washington Center
Thu 01:12:17 PM 38.8772 -77.2208 219° Southwest 397 457 45,000  Level Washington Center
Thu 01:13:15 PM 38.7906 -77.3147 220° Southwest 402 463 45,000  Level Washington Center
Thu 01:14:16 PM 38.7081 -77.4033 220° Southwest 407 468 45,000  Level Washington Center
Thu 01:15:16 PM 38.6231 -77.4969 221° Southwest 412 474 45,000  Level Washington Center
Thu 01:16:17 PM 38.5361 -77.5903 220° Southwest 412 474 45,000  Level Washington Center
Thu 01:17:15 PM 38.4617 -77.6731 221° Southwest 412 474 45,000  Level Washington Center
Thu 01:18:16 PM 38.3767 -77.7661 221° Southwest 412 474 45,000  Level Washington Center
Thu 01:19:17 PM 38.2917 -77.8561 220° Southwest 412 474 45,000 50 Level Washington Center
Thu 01:20:15 PM 38.2064 -77.9489 221° Southwest 412 474 45,100 50 Climbing Washington Center
Thu 01:21:16 PM 38.1211 -78.0411 220° Southwest 412 474 45,100  Level Washington Center
Thu 01:22:16 PM 38.0317 -78.1358 220° Southwest 412 474 45,100  Level Washington Center
Thu 01:23:17 PM 37.9464 -78.2225 219° Southwest 412 474 45,100  Level Washington Center
Thu 01:24:15 PM 37.8419 -78.3214 217° Southwest 419 482 45,100  Level Washington Center
Thu 01:25:16 PM 37.7481 -78.4100 217° Southwest 424 488 45,100  Level Washington Center
Thu 01:26:17 PM 37.6542 -78.4981 217° Southwest 430 495 45,100  Level Washington Center
Thu 01:27:15 PM 37.5581 -78.5889 217° Southwest 430 495 45,100  Level Washington Center
Thu 01:28:15 PM 37.4642 -78.6767 217° Southwest 430 495 45,100  Level Washington Center
Thu 01:29:16 PM 37.3764 -78.7567 216° Southwest 430 495 45,100  Level Washington Center
Thu 01:30:17 PM 37.2822 -78.8469 217° Southwest 430 495 45,100  Level Washington Center
Thu 01:31:15 PM 37.1861 -78.9342 216° Southwest 430 495 45,100  Level Washington Center
Thu 01:32:16 PM 37.0897 -79.0236 217° Southwest 430 495 45,100  Level Washington Center
Thu 01:33:17 PM 36.9931 -79.1103 216° Southwest 430 495 45,100  Level Washington Center
Thu 01:34:15 PM 36.8858 -79.2092 216° Southwest 430 495 45,100  Level Washington Center
Thu 01:35:16 PM 36.7914 -79.2956 216° Southwest 430 495 45,100  Level Washington Center
Thu 01:36:17 PM 36.6947 -79.3842 216° Southwest 430 495 45,100  Level Washington Center
Thu 01:39:10 PM 36.4172 -79.6347 216° Southwest 430 495 45,100  Level Atlanta Center
Thu 01:40:10 PM 36.3203 -79.7225 216° Southwest 430 495 45,100  Level Atlanta Center
Thu 01:41:10 PM 36.2275 -79.8100 217° Southwest 430 495 45,100  Level Atlanta Center
Thu 01:42:10 PM 36.1303 -79.8947 215° Southwest 430 495 45,100  Level Atlanta Center
Thu 01:43:10 PM 36.0431 -79.9683 214° Southwest 430 495 45,100  Level Atlanta Center
Thu 01:44:10 PM 35.9322 -80.0278 203° Southwest 430 495 45,100  Level Atlanta Center
Thu 01:46:27 PM 35.6761 -80.0028 175° South 418 481 45,100  Level Washington Center
Thu 01:47:27 PM 35.5978 -79.8656 125° Southeast 420 483 45,100  Level Washington Center
Thu 01:48:28 PM 35.5128 -79.7283 127° Southeast 465 535 45,100  Level Washington Center
Thu 01:49:29 PM 35.4317 -79.5967 127° Southeast 472 543 45,100  Level Washington Center
Thu 01:50:29 PM 35.3397 -79.4800 134° Southeast 477 549 45,100 -50 Level Washington Center
Thu 01:51:28 PM 35.2472 -79.3664 135° Southeast 472 543 45,000  Descending Washington Center
Thu 01:52:29 PM 35.1531 -79.2475 134° Southeast 478 550 45,100 49 Climbing Washington Center
Thu 01:53:30 PM 35.0647 -79.1269 132° Southeast 478 550 45,100 -51 Level Washington Center
Thu 01:54:27 PM 35.0028 -78.9567 114° Southeast 486 559 45,000  Descending Washington Center
Thu 01:55:28 PM 34.9444 -78.8075 115° Southeast 492 566 45,100 49 Climbing Washington Center
Thu 01:56:29 PM 34.8858 -78.6558 115° Southeast 492 566 45,100 -50 Level Washington Center
Thu 01:57:27 PM 34.8269 -78.5017 115° Southeast 497 572 45,000 -51 Descending Washington Center
Thu 01:58:27 PM 34.7722 -78.3531 114° Southeast 489 563 45,000  Level Washington Center
Thu 01:59:28 PM 34.7150 -78.1994 114° Southeast 489 563 45,000  Level Washington Center
Thu 02:00:28 PM 34.6558 -78.0436 115° Southeast 489 563 45,000  Level Washington Center
Thu 02:01:29 PM 34.5536 -77.9447 141° Southeast 462 532 45,000  Level Washington Center
Thu 02:02:27 PM 34.4308 -77.9186 170° South 428 493 45,000  Level Washington Center
Thu 02:03:27 PM 34.3078 -77.9150 179° South 421 484 45,000 -595 Level Washington Center
Thu 02:04:28 PM 34.1786 -77.9064 177° South 441 507 43,800 -655 Descending Washington Center
Thu 02:06:21 PM 33.9481 -77.8958 178° South 452 520 43,100 -243 Descending Jacksonville Center
Thu 02:07:21 PM 33.8228 -77.8906 178° South 457 526 43,100  Level Jacksonville Center
Thu 02:08:21 PM 33.6975 -77.8853 178° South 462 532 43,100 -50 Level Jacksonville Center
Thu 02:09:21 PM 33.5575 -77.8806 178° South 462 532 43,000 -50 Descending Jacksonville Center
Thu 02:10:21 PM 33.4319 -77.8753 178° South 457 526 43,000  Level Jacksonville Center
Thu 02:11:21 PM 33.3044 -77.8700 178° South 457 526 43,000  Level Jacksonville Center
Thu 02:12:21 PM 33.1811 -77.8647 178° South 457 526 43,000  Level Jacksonville Center
Thu 02:13:21 PM 33.0558 -77.8592 178° South 457 526 43,000  Level Jacksonville Center
Thu 02:14:21 PM 32.9303 -77.8514 177° South 457 526 43,000  Level Jacksonville Center
Thu 02:15:21 PM 32.8028 -77.8486 179° South 457 526 43,000  Level Jacksonville Center
Thu 02:16:21 PM 32.6775 -77.8433 178° South 457 526 43,000  Level Jacksonville Center
Thu 02:17:21 PM 32.5519 -77.8356 177° South 457 526 43,000  Level Jacksonville Center
Thu 02:18:21 PM 32.4264 -77.8303 178° South 457 526 43,000  Level Jacksonville Center
Thu 02:19:21 PM 32.3028 -77.8200 176° South 457 526 43,000  Level Jacksonville Center
Thu 02:20:21 PM 32.1778 -77.8244 182° South 457 526 43,000  Level Jacksonville Center
Thu 02:21:21 PM 32.0522 -77.8167 177° South 457 526 43,000  Level Jacksonville Center
Thu 02:22:21 PM 31.9267 -77.8064 176° South 457 526 43,000  Level Jacksonville Center
Thu 02:23:21 PM 31.8031 -77.7961 176° South 462 532 43,000  Level Jacksonville Center
Thu 02:24:21 PM 31.6781 -77.7981 181° South 456 525 43,000  Level Jacksonville Center
Thu 02:25:21 PM 31.5525 -77.7928 178° South 465 535 43,000  Level Jacksonville Center
Thu 02:26:21 PM 31.4269 -77.7850 177° South 459 528 43,000  Level Jacksonville Center
Thu 02:27:21 PM 31.3019 -77.7919 183° South 455 524 43,000  Level Jacksonville Center
Thu 02:28:21 PM 31.1767 -77.7914 180° South 455 524 43,000  Level Jacksonville Center
Thu 02:29:21 PM 31.0517 -77.7933 181° South 455 524 43,000  Level Jacksonville Center
Thu 02:30:21 PM 30.9381 -77.7728 171° South 481 554 43,000  Level Jacksonville Center
Thu 02:31:21 PM 30.8144 -77.7650 177° South 461 531 43,000  Level Jacksonville Center
Thu 02:32:21 PM 30.6911 -77.7550 176° South 447 514 43,000  Level Jacksonville Center
Thu 02:33:21 PM 30.5678 -77.7494 178° South 457 526 43,000  Level Jacksonville Center
Thu 02:35:06 PM 30.3631 -77.7500 180° South 455 524 43,000  Level Miami Center
Thu 02:36:06 PM 30.2317 -77.7442 178° South 461 531 43,000  Level Miami Center
Thu 02:37:06 PM 30.1067 -77.7358 177° South 454 522 43,000  Level Miami Center
Thu 02:38:06 PM 29.9919 -77.7350 180° South 446 513 43,000  Level Miami Center
Thu 02:39:06 PM 29.8692 -77.7292 178° South 447 514 43,000 -750 Level Miami Center
Thu 02:40:06 PM 29.7358 -77.7161 175° South 445 512 41,500 -1,750 Descending Miami Center
Thu 02:41:06 PM 29.6106 -77.7128 179° South 451 519 39,500 -1,750 Descending Miami Center
Thu 02:42:06 PM 29.4750 -77.7047 177° South 468 539 38,000 -750 Descending Miami Center
Thu 02:43:06 PM 29.3500 -77.6967 177° South 468 539 38,000  Level Miami Center
Thu 02:44:06 PM 29.2186 -77.6908 178° South 460 529 38,000  Level Miami Center
Thu 02:45:06 PM 29.0933 -77.6850 178° South 460 529 38,000  Level Miami Center
Thu 02:46:06 PM 28.9683 -77.6794 178° South 469 540 38,000  Level Miami Center
Thu 02:47:06 PM 28.8389 -77.6714 177° South 463 533 38,000 -150 Level Miami Center
Thu 02:48:06 PM 28.7094 -77.6658 178° South 463 533 37,700 -1,400 Descending Miami Center
Thu 02:49:06 PM 28.5781 -77.6578 177° South 463 533 35,200 -2,650 Descending Miami Center
Thu 02:50:06 PM 28.4383 -77.6519 178° South 480 552 32,400 -2,800 Descending Miami Center
Thu 02:51:06 PM 28.3108 -77.6439 177° South 480 552 29,600 -2,750 Descending Miami Center
Thu 02:52:06 PM 28.1753 -77.6383 178° South 474 545 26,900 -2,600 Descending Miami Center
Thu 02:53:06 PM 28.0542 -77.6328 178° South 465 535 24,400 -2,450 Descending Miami Center
Thu 02:54:06 PM 27.9353 -77.6250 177° South 441 507 22,000 -2,350 Descending Miami Center
Thu 02:55:06 PM 27.8225 -77.6194 178° South 421 484 19,700 -2,250 Descending Miami Center
Thu 02:56:06 PM 27.7119 -77.6142 178° South 403 464 17,500 -1,850 Descending Miami Center
Thu 02:57:06 PM 27.6094 -77.6086 177° South 392 451 16,000 -650 Descending Miami Center
Thu 02:58:06 PM 27.4989 -77.5986 175° South 392 451 16,200 50 Climbing Miami Center
Thu 02:59:06 PM 27.3819 -77.6003 181° South 387 445 16,100 -100 Descending Miami Center
Thu 03:00:06 PM 27.2756 -77.5925 176° South 387 445 16,000 -1,500 Descending Miami Center
Thu 03:01:06 PM 27.1836 -77.5850 176° South 382 440 13,100 -1,450 Descending Miami Center
Thu 03:02:06 PM 27.0856 -77.5844 180° South 377 434 13,100 -150 Level Miami Center
Thu 03:03:06 PM 26.9894 -77.5558 165° South 362 417 12,800 -1,150 Descending Miami Center
Thu 03:04:06 PM 26.9125 -77.5111 153° Southeast 321 369 10,800 -2,100 Descending Miami Center
Thu 03:05:06 PM 26.8353 -77.4594 149° Southeast 311 358 8,600 -1,850 Descending Miami Center
Thu 03:06:06 PM 26.7644 -77.4194 153° Southeast 293 337 7,100 -1,100 Descending Miami Center
Thu 03:07:06 PM 26.6956 -77.3728 149° Southeast 283 326 6,400 -1,050 Descending Miami Center
Thu 03:08:06 PM 26.6311 -77.3375 154° Southeast 278 320 5,000 -700 Descending Miami Center
Thu 03:09:06 PM 26.5789 -77.2956 144° Southeast 257 296 5,000  Level Miami Center
Thu 03:10:06 PM 26.5311 -77.2606 147° Southeast 229 264 5,000  Level Miami Center

Login

Don't have an account? Register now (free) for customized features, flight alerts, and more!